Terminal Aerodrome Forecast
Issued by NWS

Home | Current Version | Previous Version | Text Only | Print | Product List | Glossary On
Versions: 1 2 3 4 5 6 7 8 9 10 11 12 13 14 15 16 17 18 19 20 21 22 23 24
000
FTUS45 KLKN 181750 RRA
TAFWMC
TAF
KWMC 181750Z 1818/1918 06006KT P6SM FEW100 SCT150
     FM182100 20018G28KT P6SM VCSH SCT100 BKN150
     FM190600 25012KT 6SM -SHRASN OVC035
     FM191600 28008KT P6SM -SN OVC050=

USA.gov is the U.S. government's official web portal to all federal, state and local government web resources and services.